Time;durP1;ratioP1;P1;durP2;ratioP2;P2;SDS_P1;SDS_P2;PMS_P1;PMS_P2;Temp;Humidity;BMP_temperature;BMP_pressure;BME280_temperature;BME280_humidity;BME280_pressure;Samples;Min_cycle;Max_cycle;Signal;HPM_P1;HPM_P2
2023/03/24 00:02:06;;;;;;;5.00;3.30;;;22.40;66.90;;;;;;222542;1254;24219;-52
2023/03/24 00:07:13;;;;;;;7.20;3.40;;;22.40;66.70;;;;;;222253;1256;22518;-52
2023/03/24 00:12:18;;;;;;;6.80;3.40;;;22.40;66.90;;;;;;223005;1254;22595;-53
2023/03/24 00:17:24;;;;;;;6.10;3.70;;;22.50;66.80;;;;;;222218;1259;22907;-54
2023/03/24 00:22:28;;;;;;;6.10;3.10;;;22.50;66.80;;;;;;222263;1252;22521;-52
2023/03/24 00:27:36;;;;;;;5.10;3.50;;;22.40;67.20;;;;;;223730;1262;22548;-49
2023/03/24 00:32:41;;;;;;;6.40;3.60;;;22.40;67.10;;;;;;222065;1260;25252;-52
2023/03/24 00:37:46;;;;;;;6.00;3.00;;;22.50;67.10;;;;;;222147;1261;25283;-51
2023/03/24 00:42:50;;;;;;;6.00;3.40;;;22.40;67.60;;;;;;227917;1261;22514;-53
2023/03/24 00:47:56;;;;;;;4.90;3.50;;;22.50;67.30;;;;;;225300;1261;25167;-51
2023/03/24 00:53:00;;;;;;;4.90;3.70;;;22.60;66.70;;;;;;223222;1256;22648;-53
2023/03/24 00:58:05;;;;;;;5.20;3.70;;;22.70;66.80;;;;;;222209;1256;22700;-54
2023/03/24 01:03:09;;;;;;;4.90;3.90;;;22.50;67.40;;;;;;222441;1263;22638;-52
2023/03/24 01:08:19;;;;;;;4.80;3.50;;;22.50;67.60;;;;;;222328;1262;22529;-55
2023/03/24 01:13:27;;;;;;;6.90;3.60;;;22.50;68.10;;;;;;222401;1263;22524;-53
2023/03/24 01:18:31;;;;;;;5.50;3.60;;;22.40;68.00;;;;;;222098;1255;22508;-56
2023/03/24 01:23:36;;;;;;;5.10;3.60;;;22.40;68.00;;;;;;222463;1262;22689;-52
2023/03/24 01:28:42;;;;;;;5.80;3.70;;;22.40;68.30;;;;;;221855;1253;22685;-53
2023/03/24 01:33:46;;;;;;;5.20;3.70;;;22.40;68.00;;;;;;224798;1265;22501;-54
2023/03/24 01:38:50;;;;;;;4.80;3.90;;;22.50;67.40;;;;;;222438;1262;22511;-53
2023/03/24 01:43:54;;;;;;;5.70;3.90;;;22.50;67.60;;;;;;222230;1265;22573;-54
2023/03/24 01:49:05;;;;;;;3.90;3.20;;;22.50;67.70;;;;;;222315;1263;22513;-54
2023/03/24 01:54:47;;;;;;;4.60;3.70;;;22.50;67.50;;;;;;222279;1265;24196;-54
2023/03/24 01:59:54;;;;;;;4.30;3.20;;;22.50;67.40;;;;;;222167;1261;25294;-54
2023/03/24 02:05:27;;;;;;;4.50;3.30;;;22.40;67.50;;;;;;221077;1268;24083;-53
2023/03/24 02:10:34;;;;;;;3.90;2.90;;;22.40;67.40;;;;;;221067;1269;25309;-58
2023/03/24 02:15:53;;;;;;;6.40;3.00;;;22.30;67.50;;;;;;220791;1261;25367;-51
2023/03/24 02:21:23;;;;;;;3.00;2.60;;;22.30;67.60;;;;;;221264;1262;23930;-53
2023/03/24 02:26:35;;;;;;;4.60;3.00;;;22.30;67.40;;;;;;222224;1265;24820;-54
2023/03/24 02:32:00;;;;;;;3.30;2.80;;;22.30;66.90;;;;;;221993;1260;24215;-50
2023/03/24 02:37:26;;;;;;;3.60;3.30;;;22.30;67.20;;;;;;222197;1263;23039;-55
2023/03/24 02:42:34;;;;;;;3.30;2.60;;;22.30;67.10;;;;;;221849;1265;22543;-56
2023/03/24 02:47:46;;;;;;;3.70;2.40;;;22.20;66.60;;;;;;222108;1262;22510;-53
2023/03/24 02:52:58;;;;;;;2.90;2.40;;;22.20;66.80;;;;;;222225;1254;22517;-55
2023/03/24 02:58:37;;;;;;;3.50;2.90;;;22.20;67.00;;;;;;222035;1262;24361;-56
2023/03/24 03:03:49;;;;;;;3.00;2.70;;;22.20;66.50;;;;;;222117;1266;22522;-57
2023/03/24 03:08:56;;;;;;;3.80;2.40;;;22.20;66.90;;;;;;221883;1265;22753;-52
2023/03/24 03:14:05;;;;;;;3.30;3.00;;;22.20;66.60;;;;;;222107;1263;26608;-56
2023/03/24 03:19:20;;;;;;;2.70;2.50;;;22.20;66.30;;;;;;222171;1255;22539;-52
2023/03/24 03:24:29;;;;;;;2.50;2.30;;;22.20;66.50;;;;;;222294;1265;24193;-51
2023/03/24 03:29:39;;;;;;;3.70;2.20;;;22.10;66.20;;;;;;223405;1262;24184;-53
2023/03/24 03:34:53;;;;;;;2.70;2.20;;;22.20;66.00;;;;;;222176;1262;22498;-51
2023/03/24 03:40:10;;;;;;;2.30;2.10;;;22.20;65.90;;;;;;222093;1263;22745;-55
2023/03/24 03:45:17;;;;;;;2.50;2.30;;;22.20;65.80;;;;;;222269;1269;22897;-57
2023/03/24 03:50:22;;;;;;;3.50;2.40;;;22.10;65.80;;;;;;222188;1270;22793;-57
2023/03/24 03:55:26;;;;;;;2.60;2.30;;;22.10;66.00;;;;;;222425;1254;22721;-54
2023/03/24 04:00:31;;;;;;;2.40;2.10;;;22.10;65.80;;;;;;222232;1248;22626;-54
2023/03/24 04:06:32;;;;;;;5.00;2.30;;;22.10;65.80;;;;;;222239;1264;22509;-53
2023/03/24 04:12:27;;;;;;;2.80;2.60;;;22.10;66.00;;;;;;222401;1262;22511;-52
2023/03/24 04:18:09;;;;;;;2.70;2.20;;;22.10;65.90;;;;;;221656;1269;22652;-58
2023/03/24 04:23:43;;;;;;;2.50;2.00;;;22.10;65.60;;;;;;222312;1262;22604;-50
2023/03/24 04:29:11;;;;;;;2.40;2.10;;;22.10;65.50;;;;;;222374;1254;22525;-54
2023/03/24 04:34:21;;;;;;;3.70;2.10;;;22.00;65.50;;;;;;222159;1269;22518;-52
2023/03/24 04:39:27;;;;;;;2.60;2.00;;;22.00;65.50;;;;;;222285;1259;22526;-53
2023/03/24 04:44:35;;;;;;;2.30;2.10;;;22.00;65.80;;;;;;222414;1262;22636;-54
2023/03/24 04:50:05;;;;;;;3.00;1.90;;;22.00;65.40;;;;;;222245;1266;22525;-54
2023/03/24 04:55:49;;;;;;;2.80;2.40;;;22.00;65.40;;;;;;222052;1267;24187;-54
2023/03/24 05:01:04;;;;;;;2.30;2.00;;;22.00;65.40;;;;;;222111;1263;22509;-56
2023/03/24 05:06:09;;;;;;;3.50;2.00;;;22.00;65.60;;;;;;222022;1266;22669;-54
2023/03/24 05:11:13;;;;;;;2.30;2.10;;;22.00;65.70;;;;;;222267;1269;22508;-52
2023/03/24 05:16:22;;;;;;;2.90;2.00;;;21.90;65.40;;;;;;222051;1265;22680;-57
2023/03/24 05:21:34;;;;;;;2.10;1.90;;;21.90;65.50;;;;;;222165;1255;23914;-52
2023/03/24 05:26:39;;;;;;;4.10;1.70;;;21.90;65.30;;;;;;222270;1262;22626;-54
2023/03/24 05:32:01;;;;;;;2.70;2.20;;;21.90;65.40;;;;;;222281;1266;24194;-57
2023/03/24 05:37:10;;;;;;;2.20;1.90;;;21.90;65.30;;;;;;222329;1262;25304;-53
2023/03/24 05:42:16;;;;;;;2.80;1.70;;;21.90;65.40;;;;;;222274;1263;22512;-57
2023/03/24 05:47:20;;;;;;;2.30;2.00;;;21.90;65.10;;;;;;222239;1266;22523;-54
2023/03/24 05:52:24;;;;;;;2.20;1.90;;;21.80;65.30;;;;;;222249;1264;22527;-55
2023/03/24 05:57:36;;;;;;;2.10;1.80;;;21.90;65.40;;;;;;222068;1269;22499;-54
2023/03/24 06:02:59;;;;;;;2.00;1.40;;;21.90;65.10;;;;;;222117;1262;23883;-54
2023/03/24 06:08:12;;;;;;;2.80;1.90;;;21.90;65.20;;;;;;222139;1267;23889;-55
2023/03/24 06:13:16;;;;;;;3.70;1.70;;;21.90;65.70;;;;;;222318;1247;24228;-53
2023/03/24 06:18:23;;;;;;;2.90;1.40;;;21.80;65.00;;;;;;222038;1248;22572;-53
2023/03/24 06:23:27;;;;;;;2.20;1.70;;;22.00;65.50;;;;;;222418;1254;22524;-56
2023/03/24 06:28:46;;;;;;;3.80;2.00;;;22.20;65.10;;;;;;221979;1254;24218;-50
2023/03/24 06:33:53;;;;;;;4.90;2.10;;;22.50;64.80;;;;;;222257;1244;22524;-54
2023/03/24 06:38:57;;;;;;;2.10;1.80;;;22.60;64.20;;;;;;222175;1254;23947;-50
2023/03/24 06:44:02;;;;;;;1.90;1.60;;;22.80;64.20;;;;;;222289;1249;24192;-52
2023/03/24 06:49:07;;;;;;;2.60;1.60;;;22.80;63.90;;;;;;222186;1267;22515;-51
2023/03/24 06:54:12;;;;;;;6.80;1.80;;;23.00;63.70;;;;;;222195;1264;22925;-49
2023/03/24 06:59:16;;;;;;;3.30;1.80;;;23.10;63.60;;;;;;222398;1260;22518;-48
2023/03/24 07:04:24;;;;;;;2.90;1.90;;;23.20;63.60;;;;;;222409;1264;22600;-52
2023/03/24 07:09:29;;;;;;;4.60;1.60;;;23.10;63.80;;;;;;222237;1255;23180;-51
2023/03/24 07:14:33;;;;;;;5.00;1.70;;;23.00;63.90;;;;;;222151;1254;22696;-50
2023/03/24 07:19:40;;;;;;;3.70;2.10;;;23.00;64.30;;;;;;222115;1254;22711;-50
2023/03/24 07:25:19;;;;;;;2.50;1.80;;;22.90;64.30;;;;;;222105;1264;22633;-49
2023/03/24 07:30:43;;;;;;;3.50;1.80;;;22.90;64.40;;;;;;221907;1254;23602;-51
2023/03/24 07:35:47;;;;;;;15.90;2.10;;;22.90;64.50;;;;;;222298;1264;22534;-48
2023/03/24 07:40:52;;;;;;;4.90;1.70;;;22.90;65.20;;;;;;222199;1263;22518;-54
2023/03/24 07:45:56;;;;;;;3.40;1.60;;;22.90;65.10;;;;;;222310;1255;22547;-51
2023/03/24 07:51:04;;;;;;;4.50;1.70;;;22.90;64.20;;;;;;222259;1264;22512;-51
2023/03/24 07:56:23;;;;;;;5.50;2.00;;;22.90;63.90;;;;;;222241;1262;24256;-49
2023/03/24 08:01:31;;;;;;;3.80;1.80;;;23.10;63.50;;;;;;221842;1254;24208;-49
2023/03/24 08:06:37;;;;;;;3.90;1.50;;;23.00;63.70;;;;;;222251;1262;22557;-49
2023/03/24 08:11:41;;;;;;;5.70;1.80;;;23.00;63.30;;;;;;222115;1253;22528;-48
2023/03/24 08:16:45;;;;;;;3.10;1.50;;;23.10;63.20;;;;;;222076;1254;22599;-51
2023/03/24 08:21:49;;;;;;;1.80;1.60;;;23.00;63.20;;;;;;222270;1260;22568;-51
2023/03/24 08:26:57;;;;;;;3.60;1.80;;;23.00;63.40;;;;;;222234;1254;22584;-51
2023/03/24 08:32:02;;;;;;;5.50;2.00;;;22.70;64.10;;;;;;222129;1254;22537;-48
2023/03/24 08:37:07;;;;;;;2.10;1.60;;;22.60;63.70;;;;;;222379;1262;24358;-44
2023/03/24 08:42:11;;;;;;;4.60;2.20;;;22.70;63.70;;;;;;222409;1260;22514;-46
2023/03/24 08:47:15;;;;;;;2.20;1.50;;;22.70;64.00;;;;;;222501;1265;22497;-47
2023/03/24 08:52:19;;;;;;;1.60;1.40;;;22.70;63.50;;;;;;222290;1262;22522;-50
2023/03/24 08:57:23;;;;;;;5.10;1.50;;;22.70;63.90;;;;;;222241;1253;24349;-49
2023/03/24 09:02:27;;;;;;;2.50;1.70;;;22.60;64.70;;;;;;222249;1253;22635;-50
2023/03/24 09:07:31;;;;;;;5.70;1.70;;;22.70;64.60;;;;;;222623;1246;24263;-54
2023/03/24 09:12:37;;;;;;;7.90;2.50;;;22.70;64.60;;;;;;222439;1255;22531;-45
2023/03/24 09:17:41;;;;;;;5.30;3.60;;;22.70;64.80;;;;;;222250;1262;24229;-51
2023/03/24 09:22:46;;;;;;;3.90;2.90;;;22.60;64.70;;;;;;223195;1262;23661;-43
2023/03/24 09:27:50;;;;;;;7.80;3.30;;;22.60;64.60;;;;;;222309;1254;26677;-47
2023/03/24 09:32:57;;;;;;;5.60;3.70;;;22.50;64.60;;;;;;222320;1263;25337;-46
2023/03/24 09:38:01;;;;;;;6.30;3.50;;;22.60;64.40;;;;;;222371;1260;24254;-47
2023/03/24 09:43:35;;;;;;;4.80;3.20;;;22.60;64.50;;;;;;222120;1254;24053;-47
2023/03/24 09:48:51;;;;;;;3.70;3.30;;;22.60;64.40;;;;;;222221;1262;22513;-45
2023/03/24 09:54:21;;;;;;;4.90;3.50;;;22.50;64.50;;;;;;222360;1254;22589;-56
2023/03/24 09:59:27;;;;;;;3.90;3.00;;;22.50;64.50;;;;;;222322;1264;22536;-54
2023/03/24 10:04:31;;;;;;;4.40;3.10;;;22.50;64.50;;;;;;222255;1260;22606;-49
2023/03/24 10:09:36;;;;;;;5.70;3.90;;;22.50;64.40;;;;;;222307;1254;23927;-45
2023/03/24 10:15:06;;;;;;;3.70;2.70;;;22.50;64.10;;;;;;222259;1254;22534;-49
2023/03/24 10:20:45;;;;;;;3.00;2.80;;;22.60;64.20;;;;;;222447;1264;22537;-53
2023/03/24 10:26:14;;;;;;;4.90;3.60;;;22.40;64.60;;;;;;222016;1260;22584;-50
2023/03/24 10:31:28;;;;;;;3.40;3.10;;;22.50;63.90;;;;;;222205;1261;22506;-47
2023/03/24 10:36:33;;;;;;;3.40;2.80;;;22.60;64.10;;;;;;222147;1256;23284;-50
2023/03/24 10:41:40;;;;;;;4.00;3.10;;;22.50;64.00;;;;;;222413;1255;24212;-53
2023/03/24 10:46:48;;;;;;;3.50;3.10;;;22.60;63.50;;;;;;222224;1262;24358;-51
2023/03/24 10:52:00;;;;;;;3.50;3.00;;;22.50;63.60;;;;;;222496;1262;22512;-52
2023/03/24 10:57:16;;;;;;;6.00;3.40;;;22.60;63.50;;;;;;222362;1255;22564;-53
2023/03/24 11:02:28;;;;;;;6.90;3.10;;;22.60;63.60;;;;;;222261;1254;24022;-46
2023/03/24 11:07:38;;;;;;;3.50;3.20;;;22.70;64.00;;;;;;222163;1246;22554;-48
2023/03/24 11:13:01;;;;;;;4.40;2.90;;;22.50;64.20;;;;;;222214;1260;22641;-43
2023/03/24 11:18:11;;;;;;;3.60;3.30;;;22.60;64.50;;;;;;222161;1262;25096;-49
2023/03/24 11:23:24;;;;;;;3.00;2.70;;;22.60;65.00;;;;;;222430;1269;25473;-53
2023/03/24 11:28:29;;;;;;;3.60;2.90;;;22.60;64.90;;;;;;222371;1262;23186;-54
2023/03/24 11:33:41;;;;;;;3.40;3.20;;;22.40;65.40;;;;;;222230;1254;22720;-54
2023/03/24 11:39:23;;;;;;;3.10;2.80;;;22.50;65.40;;;;;;222357;1254;22597;-57
2023/03/24 11:44:40;;;;;;;7.60;3.30;;;22.40;65.90;;;;;;222271;1262;23425;-56
2023/03/24 11:49:52;;;;;;;3.10;2.80;;;22.50;65.90;;;;;;222427;1255;22514;-53
2023/03/24 11:54:56;;;;;;;5.80;3.00;;;22.40;66.00;;;;;;222461;1260;26721;-54
2023/03/24 12:00:12;;;;;;;7.00;2.90;;;22.40;66.30;;;;;;222366;1254;22524;-51
2023/03/24 12:05:30;;;;;;;3.60;2.60;;;22.40;66.40;;;;;;222393;1261;26694;-58
2023/03/24 12:11:02;;;;;;;3.30;3.00;;;22.40;66.30;;;;;;222312;1265;23924;-58
2023/03/24 12:16:24;;;;;;;3.00;2.70;;;22.40;66.60;;;;;;222518;1253;24493;-55
2023/03/24 12:21:50;;;;;;;2.80;2.60;;;22.40;66.60;;;;;;222488;1260;23142;-56
2023/03/24 12:26:58;;;;;;;3.00;2.80;;;22.40;66.70;;;;;;222378;1255;24387;-61
2023/03/24 12:32:11;;;;;;;3.00;2.80;;;22.40;67.00;;;;;;222190;1263;22518;-58
2023/03/24 12:37:30;;;;;;;3.50;2.60;;;22.30;66.60;;;;;;222430;1264;25320;-56
2023/03/24 12:42:45;;;;;;;2.80;2.60;;;22.30;67.30;;;;;;222365;1262;24379;-57
2023/03/24 12:48:35;;;;;;;2.40;2.30;;;22.30;67.30;;;;;;222192;1254;24225;-55
2023/03/24 12:53:45;;;;;;;2.40;2.30;;;22.30;67.50;;;;;;222419;1262;25343;-55
2023/03/24 12:58:55;;;;;;;2.70;2.50;;;22.30;67.50;;;;;;222396;1249;22525;-55
2023/03/24 13:04:41;;;;;;;2.50;2.30;;;22.20;67.60;;;;;;222368;1246;22507;-55
2023/03/24 13:09:54;;;;;;;4.00;2.70;;;22.20;68.00;;;;;;220762;1270;23898;-54
2023/03/24 13:15:24;;;;;;;2.40;2.30;;;22.30;67.70;;;;;;220716;1262;22653;-55
2023/03/24 13:20:54;;;;;;;2.60;2.40;;;22.30;67.90;;;;;;220882;1270;24273;-51
2023/03/24 13:26:15;;;;;;;2.50;2.30;;;22.30;67.80;;;;;;220779;1270;22658;-49
2023/03/24 13:31:23;;;;;;;2.60;2.40;;;22.30;67.90;;;;;;220834;1263;24208;-55
2023/03/24 13:36:43;;;;;;;2.40;2.30;;;22.30;67.90;;;;;;221009;1270;22610;-54
2023/03/24 13:41:50;;;;;;;2.70;2.40;;;22.30;68.00;;;;;;222312;1260;24196;-50
2023/03/24 13:47:17;;;;;;;2.50;2.30;;;22.20;67.90;;;;;;222506;1262;23106;-48
2023/03/24 13:52:35;;;;;;;2.20;2.00;;;22.10;68.20;;;;;;222256;1260;24289;-50
2023/03/24 13:57:51;;;;;;;3.50;2.40;;;22.30;67.80;;;;;;222563;1255;24228;-46
2023/03/24 14:03:04;;;;;;;4.30;2.20;;;22.20;68.30;;;;;;222538;1265;25448;-54
2023/03/24 14:08:13;;;;;;;2.10;1.90;;;22.10;68.40;;;;;;222415;1254;25506;-49
2023/03/24 14:13:21;;;;;;;2.20;2.10;;;22.10;68.60;;;;;;223030;1257;22518;-47
2023/03/24 14:18:25;;;;;;;2.40;2.20;;;22.10;68.90;;;;;;222290;1255;24194;-47
2023/03/24 14:23:52;;;;;;;4.00;2.20;;;22.10;68.30;;;;;;222260;1262;22526;-48
2023/03/24 14:29:03;;;;;;;2.40;2.20;;;22.10;69.10;;;;;;222292;1260;24345;-51
2023/03/24 14:34:12;;;;;;;3.00;2.40;;;22.10;68.60;;;;;;222459;1256;22725;-49
2023/03/24 14:39:39;;;;;;;5.50;2.90;;;22.20;69.80;;;;;;222530;1256;22573;-48
2023/03/24 14:44:48;;;;;;;3.40;2.70;;;22.30;71.60;;;;;;222456;1262;22527;-52
2023/03/24 14:49:54;;;;;;;3.50;3.10;;;22.50;70.80;;;;;;222349;1255;22513;-46
2023/03/24 14:55:11;;;;;;;4.40;2.70;;;22.50;70.80;;;;;;222327;1262;22521;-53
2023/03/24 15:00:18;;;;;;;5.70;2.70;;;22.40;70.10;;;;;;221969;1265;22514;-53
2023/03/24 15:05:31;;;;;;;3.10;2.50;;;22.40;69.90;;;;;;222246;1262;22514;-53
2023/03/24 15:11:00;;;;;;;4.00;2.70;;;22.30;70.70;;;;;;222334;1254;25614;-53
2023/03/24 15:16:11;;;;;;;4.30;2.90;;;22.20;70.30;;;;;;222249;1262;24327;-54
2023/03/24 15:21:35;;;;;;;2.80;2.50;;;22.20;70.20;;;;;;222305;1253;22695;-46
2023/03/24 15:26:39;;;;;;;5.20;2.70;;;22.20;70.20;;;;;;222202;1255;24236;-48
2023/03/24 15:31:44;;;;;;;2.80;2.50;;;22.10;70.20;;;;;;222299;1260;22535;-50
2023/03/24 15:36:53;;;;;;;2.80;2.30;;;22.10;70.40;;;;;;222506;1262;25478;-47
2023/03/24 15:41:57;;;;;;;3.10;2.30;;;22.10;69.80;;;;;;222457;1257;22518;-50
2023/03/24 15:47:02;;;;;;;2.80;2.60;;;22.10;70.00;;;;;;222401;1265;22511;-49
2023/03/24 15:52:33;;;;;;;3.30;2.60;;;22.10;70.00;;;;;;222396;1265;23107;-50
2023/03/24 15:57:41;;;;;;;8.10;2.80;;;22.00;70.30;;;;;;222221;1262;22807;-51
2023/03/24 16:02:53;;;;;;;8.10;3.20;;;22.20;70.20;;;;;;222292;1262;22533;-45
2023/03/24 16:08:23;;;;;;;4.10;2.90;;;22.30;70.30;;;;;;222183;1260;22573;-47
2023/03/24 16:13:27;;;;;;;4.40;2.40;;;22.30;69.10;;;;;;222024;1254;24247;-47
2023/03/24 16:18:35;;;;;;;3.70;2.80;;;22.40;69.50;;;;;;222501;1253;23887;-46
2023/03/24 16:23:43;;;;;;;11.60;5.60;;;22.40;69.30;;;;;;222204;1262;24338;-46
2023/03/24 16:28:48;;;;;;;11.80;6.30;;;22.50;67.70;;;;;;222335;1260;24845;-45
2023/03/24 16:33:53;;;;;;;19.50;8.20;;;22.40;68.10;;;;;;222238;1262;25034;-46
2023/03/24 16:39:00;;;;;;;13.90;6.60;;;22.50;68.30;;;;;;222341;1262;22516;-45
2023/03/24 16:44:05;;;;;;;9.70;5.40;;;22.40;69.10;;;;;;222095;1265;22627;-46
2023/03/24 16:49:13;;;;;;;9.80;5.70;;;22.30;69.90;;;;;;222202;1262;22738;-47
2023/03/24 16:54:18;;;;;;;10.80;5.70;;;22.40;69.50;;;;;;222235;1260;24427;-48
2023/03/24 16:59:22;;;;;;;10.40;4.70;;;22.40;68.90;;;;;;222292;1262;22657;-52
2023/03/24 17:04:29;;;;;;;10.10;4.70;;;22.50;69.40;;;;;;222295;1261;24240;-54
2023/03/24 17:09:35;;;;;;;10.40;5.40;;;22.50;68.80;;;;;;222110;1268;23919;-48
2023/03/24 17:14:39;;;;;;;12.60;5.30;;;22.40;70.10;;;;;;222171;1256;24493;-53
2023/03/24 17:19:43;;;;;;;10.90;4.90;;;22.40;70.60;;;;;;222235;1260;25282;-52
2023/03/24 17:24:48;;;;;;;12.30;4.70;;;22.50;69.50;;;;;;222223;1256;22520;-49
2023/03/24 17:29:53;;;;;;;11.20;4.80;;;22.60;69.20;;;;;;222317;1246;24190;-49
2023/03/24 17:35:00;;;;;;;8.80;4.20;;;22.50;69.20;;;;;;221937;1254;25272;-59
2023/03/24 17:40:10;;;;;;;10.60;4.40;;;22.40;69.60;;;;;;222287;1262;22527;-59
2023/03/24 17:45:18;;;;;;;8.90;4.80;;;22.40;69.90;;;;;;222262;1249;24222;-63
2023/03/24 17:50:25;;;;;;;8.50;4.20;;;22.50;69.10;;;;;;222320;1261;24661;-59
2023/03/24 17:55:31;;;;;;;8.90;4.30;;;22.40;69.20;;;;;;222269;1262;25348;-55
2023/03/24 18:00:36;;;;;;;8.90;4.20;;;22.50;68.20;;;;;;222114;1262;24181;-54
2023/03/24 18:05:42;;;;;;;11.20;4.30;;;22.60;68.50;;;;;;222251;1255;22549;-56
2023/03/24 18:10:48;;;;;;;4.70;3.80;;;22.50;68.20;;;;;;222277;1253;25258;-58
2023/03/24 18:15:53;;;;;;;9.90;4.50;;;22.50;68.70;;;;;;222347;1262;22519;-55
2023/03/24 18:20:59;;;;;;;12.60;4.00;;;22.50;68.50;;;;;;222524;1261;27106;-56
2023/03/24 18:26:10;;;;;;;8.00;3.70;;;22.60;69.20;;;;;;222391;1253;158086;-53
2023/03/24 18:31:19;;;;;;;7.00;3.60;;;22.50;68.30;;;;;;222272;1253;23912;-51
2023/03/24 18:36:26;;;;;;;7.70;3.40;;;22.50;68.30;;;;;;222229;1254;24229;-50
2023/03/24 18:41:37;;;;;;;9.10;3.60;;;22.50;68.00;;;;;;222037;1254;22639;-46
2023/03/24 18:46:43;;;;;;;7.00;3.20;;;22.50;67.70;;;;;;222254;1249;23914;-47
2023/03/24 18:51:50;;;;;;;8.30;3.10;;;22.40;67.80;;;;;;222232;1263;22629;-51
2023/03/24 18:56:57;;;;;;;5.10;3.50;;;22.40;68.40;;;;;;222126;1255;24359;-46
2023/03/24 19:02:04;;;;;;;8.30;3.20;;;22.30;68.70;;;;;;222288;1256;23850;-47
2023/03/24 19:07:13;;;;;;;5.40;3.30;;;22.30;68.40;;;;;;222202;1262;24369;-50
2023/03/24 19:12:20;;;;;;;5.80;3.60;;;22.20;68.70;;;;;;222360;1256;22796;-50
2023/03/24 19:17:26;;;;;;;6.90;2.80;;;22.20;68.50;;;;;;222399;1263;22654;-49
2023/03/24 19:22:32;;;;;;;9.30;3.50;;;22.20;68.60;;;;;;222348;1262;25204;-51
2023/03/24 19:27:39;;;;;;;7.30;3.50;;;22.20;68.50;;;;;;221900;1262;22640;-52
2023/03/24 19:32:45;;;;;;;6.80;3.60;;;22.20;68.60;;;;;;222478;1262;22529;-50
2023/03/24 19:37:52;;;;;;;6.80;3.30;;;22.20;68.60;;;;;;222350;1260;26792;-49
2023/03/24 19:42:59;;;;;;;6.90;3.40;;;22.10;68.30;;;;;;222010;1262;24218;-46
2023/03/24 19:48:04;;;;;;;4.50;2.90;;;22.20;67.60;;;;;;222406;1254;24276;-45
2023/03/24 19:53:10;;;;;;;6.40;3.30;;;22.30;67.30;;;;;;221940;1263;24625;-47
2023/03/24 19:58:16;;;;;;;5.20;2.80;;;22.30;67.40;;;;;;222309;1265;25601;-47
2023/03/24 20:03:22;;;;;;;2.80;2.40;;;22.30;67.30;;;;;;222280;1262;24210;-49
2023/03/24 20:08:28;;;;;;;5.80;3.00;;;22.30;66.90;;;;;;222396;1263;22578;-53
2023/03/24 20:13:34;;;;;;;7.20;3.20;;;22.30;68.00;;;;;;222122;1263;22573;-48
2023/03/24 20:18:41;;;;;;;7.20;2.60;;;22.30;68.00;;;;;;222457;1249;25356;-49
2023/03/24 20:23:51;;;;;;;5.10;2.90;;;22.40;67.20;;;;;;222269;1262;24171;-46
2023/03/24 20:28:57;;;;;;;3.10;2.80;;;22.30;67.20;;;;;;222297;1258;22524;-48
2023/03/24 20:34:03;;;;;;;5.40;3.20;;;22.30;68.40;;;;;;222307;1262;22518;-48
2023/03/24 20:39:11;;;;;;;5.90;3.30;;;22.20;68.10;;;;;;222374;1255;22570;-48
2023/03/24 20:44:17;;;;;;;5.30;2.50;;;22.10;68.00;;;;;;222414;1256;22605;-42
2023/03/24 20:49:24;;;;;;;6.10;3.00;;;22.10;67.80;;;;;;222435;1261;22530;-41
2023/03/24 20:54:32;;;;;;;5.30;2.70;;;22.10;68.40;;;;;;222187;1264;22806;-40
2023/03/24 20:59:38;;;;;;;5.60;2.60;;;22.10;68.10;;;;;;222387;1254;22534;-42
2023/03/24 21:04:48;;;;;;;6.90;3.00;;;22.10;68.40;;;;;;222126;1255;22634;-42
2023/03/24 21:09:54;;;;;;;5.50;2.70;;;22.10;68.20;;;;;;222299;1249;24333;-55
2023/03/24 21:15:04;;;;;;;7.30;2.80;;;22.30;67.70;;;;;;222259;1262;25526;-55
2023/03/24 21:20:12;;;;;;;6.40;3.10;;;22.40;67.80;;;;;;222376;1257;23022;-53
2023/03/24 21:25:20;;;;;;;5.70;2.50;;;22.40;67.50;;;;;;222266;1259;22689;-55
2023/03/24 21:30:26;;;;;;;4.20;2.60;;;22.40;67.40;;;;;;222235;1256;22616;-53
2023/03/24 21:35:31;;;;;;;3.40;2.70;;;22.40;67.50;;;;;;222117;1261;24343;-51
2023/03/24 21:40:36;;;;;;;6.80;2.70;;;22.40;67.50;;;;;;222179;1255;22521;-50
2023/03/24 21:45:45;;;;;;;5.20;2.40;;;22.40;67.50;;;;;;222351;1261;25299;-54
2023/03/24 21:50:51;;;;;;;5.70;2.50;;;22.40;67.50;;;;;;222394;1253;24184;-51
2023/03/24 21:56:03;;;;;;;5.30;2.50;;;22.40;67.40;;;;;;222263;1262;22556;-52
2023/03/24 22:01:08;;;;;;;3.70;2.30;;;22.40;66.80;;;;;;222337;1255;24284;-55
2023/03/24 22:06:13;;;;;;;3.30;2.70;;;22.40;67.30;;;;;;222375;1256;24324;-55
2023/03/24 22:11:18;;;;;;;5.20;2.70;;;22.40;67.20;;;;;;222296;1263;24328;-56
2023/03/24 22:16:21;;;;;;;3.60;2.50;;;22.50;67.20;;;;;;222393;1262;22514;-56
2023/03/24 22:21:26;;;;;;;2.90;2.60;;;22.40;66.90;;;;;;222305;1262;22776;-54
2023/03/24 22:26:30;;;;;;;6.20;3.00;;;22.40;67.20;;;;;;222293;1263;22608;-50
2023/03/24 22:31:34;;;;;;;4.30;2.70;;;22.40;67.80;;;;;;222350;1263;22983;-52
2023/03/24 22:36:38;;;;;;;5.20;2.80;;;22.30;67.30;;;;;;222363;1261;24194;-52
2023/03/24 22:41:42;;;;;;;3.60;2.70;;;22.40;66.90;;;;;;222514;1260;25213;-54
2023/03/24 22:46:46;;;;;;;4.50;2.90;;;22.30;66.90;;;;;;222216;1267;22524;-53
2023/03/24 22:51:51;;;;;;;4.90;2.40;;;22.20;67.30;;;;;;222500;1269;23920;-54
2023/03/24 22:56:55;;;;;;;7.50;4.40;;;22.10;66.90;;;;;;222268;1262;22641;-53
2023/03/24 23:02:02;;;;;;;6.20;4.10;;;22.10;67.30;;;;;;222209;1264;23895;-58
2023/03/24 23:07:13;;;;;;;7.50;3.40;;;22.20;66.50;;;;;;222360;1255;25480;-61
2023/03/24 23:12:18;;;;;;;6.10;3.10;;;22.30;66.20;;;;;;222150;1266;22531;-61
2023/03/24 23:17:22;;;;;;;6.00;3.30;;;22.20;66.70;;;;;;222125;1263;24032;-49
2023/03/24 23:22:27;;;;;;;5.10;3.10;;;22.10;67.30;;;;;;222159;1263;22519;-53
2023/03/24 23:27:33;;;;;;;15.20;5.90;;;22.00;67.20;;;;;;222246;1261;22921;-56
2023/03/24 23:32:40;;;;;;;12.10;4.80;;;22.00;67.50;;;;;;222157;1264;25107;-52
2023/03/24 23:37:44;;;;;;;10.70;4.90;;;21.90;67.30;;;;;;222355;1262;25271;-51
2023/03/24 23:42:49;;;;;;;11.00;4.40;;;22.00;70.70;;;;;;221906;1269;26509;-53
2023/03/24 23:47:53;;;;;;;10.00;4.20;;;22.00;70.30;;;;;;222427;1268;24269;-54
2023/03/24 23:52:58;;;;;;;14.90;4.50;;;21.90;70.70;;;;;;222180;1265;25296;-52
2023/03/24 23:58:03;;;;;;;9.20;4.30;;;21.90;71.30;;;;;;222436;1262;22515;-55
